Time;durP1;ratioP1;P1;durP2;ratioP2;P2;SDS_P1;SDS_P2;PMS_P1;PMS_P2;Temp;Humidity;BMP_temperature;BMP_pressure;BME280_temperature;BME280_humidity;BME280_pressure;Samples;Min_cycle;Max_cycle;Signal;HPM_P1;HPM_P2
2022/03/18 00:00:47;;;;;;;20.02;13.18;;;8.60;99.90;;;;;;4988995;28;20046;-87
2022/03/18 00:03:13;;;;;;;22.63;13.73;;;8.60;99.90;;;;;;5007046;28;20076;-87
2022/03/18 00:05:39;;;;;;;20.42;13.60;;;8.60;99.90;;;;;;4991089;28;20390;-87
2022/03/18 00:08:05;;;;;;;22.90;13.57;;;8.60;99.90;;;;;;4990166;28;20033;-87
2022/03/18 00:10:31;;;;;;;21.00;13.15;;;8.60;99.90;;;;;;4984230;28;20046;-87
2022/03/18 00:12:57;;;;;;;22.33;13.30;;;8.60;99.90;;;;;;4991281;28;20033;-87
2022/03/18 00:15:23;;;;;;;19.55;13.52;;;8.50;99.90;;;;;;5008530;28;20022;-87
2022/03/18 00:17:50;;;;;;;24.30;14.13;;;8.60;99.90;;;;;;4987983;28;20033;-88
2022/03/18 00:20:16;;;;;;;23.50;14.80;;;8.50;99.90;;;;;;4989990;28;20046;-87
2022/03/18 00:22:43;;;;;;;20.40;13.90;;;8.50;99.90;;;;;;4993100;28;20104;-86
2022/03/18 00:25:11;;;;;;;22.70;13.80;;;8.50;99.90;;;;;;5011598;28;20042;-87
2022/03/18 00:27:38;;;;;;;23.85;14.02;;;8.50;99.90;;;;;;4990874;28;20124;-88
2022/03/18 00:30:05;;;;;;;20.13;12.95;;;8.50;99.90;;;;;;5009490;28;20162;-88
2022/03/18 00:32:31;;;;;;;21.20;13.38;;;8.50;99.90;;;;;;4985740;28;20076;-88
2022/03/18 00:34:56;;;;;;;23.70;13.90;;;8.50;99.90;;;;;;4986749;28;20030;-87
2022/03/18 00:37:22;;;;;;;23.20;13.40;;;8.50;99.90;;;;;;5000286;28;20359;-88
2022/03/18 00:39:48;;;;;;;20.20;13.80;;;8.50;99.90;;;;;;5013270;28;20097;-88
2022/03/18 00:42:13;;;;;;;23.98;14.05;;;8.40;99.90;;;;;;4989870;28;20114;-87
2022/03/18 00:44:40;;;;;;;22.23;13.48;;;8.40;99.90;;;;;;4994192;28;20033;-87
2022/03/18 00:52:03;;;;;;;21.58;13.40;;;8.40;99.90;;;;;;4994163;28;20395;-87
2022/03/18 00:52:39;;;;;;;20.10;12.68;;;8.40;99.90;;;;;;5010756;28;20458;-86
2022/03/18 00:55:05;;;;;;;21.98;13.23;;;8.40;99.90;;;;;;4993258;28;20034;-88
2022/03/18 00:57:31;;;;;;;20.42;12.65;;;8.40;99.90;;;;;;5009178;28;20406;-87
2022/03/18 00:59:57;;;;;;;21.30;12.88;;;8.40;99.90;;;;;;4991942;28;20026;-88
2022/03/18 01:02:23;;;;;;;20.38;13.02;;;8.40;99.90;;;;;;4997641;28;20328;-87
2022/03/18 01:04:50;;;;;;;24.48;13.88;;;8.40;99.90;;;;;;5008642;28;20308;-87
2022/03/18 01:07:18;;;;;;;21.52;12.38;;;8.40;99.90;;;;;;5017649;28;20041;-88
2022/03/18 01:09:44;;;;;;;23.65;13.48;;;8.40;99.90;;;;;;4992560;28;20112;-88
2022/03/18 01:12:10;;;;;;;21.67;12.90;;;8.40;99.90;;;;;;4987737;28;20029;-88
2022/03/18 01:14:36;;;;;;;19.70;12.85;;;8.40;99.90;;;;;;4984048;28;20029;-88
2022/03/18 01:17:02;;;;;;;20.85;12.98;;;8.40;99.90;;;;;;4989267;28;20022;-87
2022/03/18 01:19:28;;;;;;;19.60;12.65;;;8.40;99.90;;;;;;4995944;28;20022;-88
2022/03/18 01:21:53;;;;;;;21.00;12.82;;;8.30;99.90;;;;;;4988299;28;20394;-88
2022/03/18 01:24:19;;;;;;;19.95;13.38;;;8.40;99.90;;;;;;4987167;28;20494;-88
2022/03/18 01:26:45;;;;;;;19.98;13.65;;;8.40;99.90;;;;;;5013176;28;20057;-88
2022/03/18 01:29:11;;;;;;;22.42;12.55;;;8.30;99.90;;;;;;5007955;28;20065;-88
2022/03/18 01:31:36;;;;;;;20.73;13.23;;;8.30;99.90;;;;;;4988022;28;20033;-88
2022/03/18 01:34:02;;;;;;;21.13;12.73;;;8.40;99.90;;;;;;5008876;28;20014;-87
2022/03/18 01:36:28;;;;;;;20.30;12.77;;;8.30;99.90;;;;;;5001270;28;20022;-88
2022/03/18 01:38:54;;;;;;;18.58;12.50;;;8.30;99.90;;;;;;4994376;28;20018;-87
2022/03/18 01:41:20;;;;;;;19.08;12.45;;;8.30;99.90;;;;;;4995164;28;20041;-87
2022/03/18 01:43:46;;;;;;;19.08;12.85;;;8.40;99.90;;;;;;4994036;28;20080;-87
2022/03/18 01:46:14;;;;;;;21.67;12.68;;;8.40;99.90;;;;;;4994574;28;20048;-87
2022/03/18 01:48:40;;;;;;;20.88;12.50;;;8.40;99.90;;;;;;5012324;28;20397;-87
2022/03/18 01:51:07;;;;;;;20.58;12.50;;;8.30;99.90;;;;;;4994805;28;20022;-87
2022/03/18 01:53:37;;;;;;;18.50;12.27;;;8.30;99.90;;;;;;5013425;28;20021;-87
2022/03/18 01:56:04;;;;;;;19.02;12.23;;;8.30;99.90;;;;;;4987791;28;20122;-87
2022/03/18 01:58:30;;;;;;;19.13;12.40;;;8.30;99.90;;;;;;4988679;28;20105;-87
2022/03/18 02:00:56;;;;;;;22.15;12.95;;;8.30;99.90;;;;;;4985653;28;20058;-87
2022/03/18 02:03:22;;;;;;;19.65;11.90;;;8.30;99.90;;;;;;5008046;22;20033;-86
2022/03/18 02:05:48;;;;;;;17.67;11.30;;;8.30;99.90;;;;;;4994859;28;20030;-86
2022/03/18 02:08:17;;;;;;;20.05;12.48;;;8.30;99.90;;;;;;5002884;28;20021;-86
2022/03/18 02:10:43;;;;;;;19.33;12.02;;;8.30;99.90;;;;;;5006044;28;20034;-86
2022/03/18 02:13:09;;;;;;;20.23;11.52;;;8.30;99.90;;;;;;5001931;28;20036;-86
2022/03/18 02:15:35;;;;;;;16.27;10.43;;;8.30;99.90;;;;;;4999516;28;20018;-87
2022/03/18 02:18:00;;;;;;;18.02;11.35;;;8.30;99.90;;;;;;5003102;28;20040;-86
2022/03/18 02:20:26;;;;;;;16.75;11.13;;;8.20;99.90;;;;;;5003616;28;20030;-86
2022/03/18 02:22:52;;;;;;;19.40;11.45;;;8.30;99.90;;;;;;5002488;28;20533;-86
2022/03/18 02:25:18;;;;;;;17.35;10.85;;;8.20;99.90;;;;;;5001967;28;20083;-86
2022/03/18 02:27:58;;;;;;;17.08;10.63;;;8.20;99.90;;;;;;5005924;28;20089;-87
2022/03/18 02:30:28;;;;;;;17.90;10.45;;;8.10;99.90;;;;;;5015243;28;20022;-87
2022/03/18 02:32:54;;;;;;;17.67;11.05;;;8.10;99.90;;;;;;5001410;28;20029;-87
2022/03/18 02:35:19;;;;;;;18.42;11.40;;;8.10;99.90;;;;;;5002296;28;20512;-86
2022/03/18 02:37:45;;;;;;;18.27;11.65;;;8.20;99.90;;;;;;5001635;28;20014;-86
2022/03/18 02:40:11;;;;;;;17.50;11.93;;;8.10;99.90;;;;;;5001943;28;20026;-86
2022/03/18 02:42:36;;;;;;;17.90;11.25;;;8.10;99.90;;;;;;5020289;28;20057;-86
2022/03/18 02:45:02;;;;;;;18.20;11.07;;;8.10;99.90;;;;;;5015428;28;20052;-85
2022/03/18 02:47:28;;;;;;;20.48;12.25;;;8.10;99.90;;;;;;4997647;28;20045;-86
2022/03/18 02:49:54;;;;;;;17.00;11.07;;;8.10;99.90;;;;;;4997729;28;20029;-88
2022/03/18 02:52:20;;;;;;;17.98;11.35;;;8.10;99.90;;;;;;5001754;28;20157;-87
2022/03/18 02:54:46;;;;;;;21.70;12.35;;;8.10;99.90;;;;;;5002211;28;20381;-86
2022/03/18 02:57:12;;;;;;;21.70;12.63;;;8.10;99.90;;;;;;5002744;28;20030;-87
2022/03/18 02:59:38;;;;;;;18.95;11.75;;;8.10;99.90;;;;;;5002471;28;20021;-87
2022/03/18 03:02:04;;;;;;;18.67;12.30;;;8.00;99.90;;;;;;5000829;28;20121;-86
2022/03/18 03:04:29;;;;;;;19.67;11.88;;;8.10;99.90;;;;;;5001242;28;20041;-87
2022/03/18 03:09:41;;;;;;;19.92;11.82;;;8.00;99.90;;;;;;4984776;28;20106;-85
2022/03/18 03:12:06;;;;;;;20.67;12.98;;;8.00;99.90;;;;;;5002884;28;20501;-86
2022/03/18 03:14:32;;;;;;;19.77;11.73;;;8.00;99.90;;;;;;5001920;28;20029;-86
2022/03/18 03:16:57;;;;;;;16.70;11.05;;;7.90;99.90;;;;;;5001912;28;20026;-87
2022/03/18 03:19:23;;;;;;;17.90;11.25;;;7.90;99.90;;;;;;5000445;28;20093;-86
2022/03/18 03:21:49;;;;;;;18.52;11.90;;;7.90;99.90;;;;;;5000249;28;20025;-87
2022/03/18 03:24:14;;;;;;;17.98;11.85;;;7.90;99.90;;;;;;5018118;28;20044;-86
2022/03/18 03:26:40;;;;;;;19.17;11.93;;;8.00;99.90;;;;;;5003589;28;20116;-87
2022/03/18 03:29:06;;;;;;;19.73;12.10;;;8.00;99.90;;;;;;5002668;28;20022;-86
2022/03/18 03:31:32;;;;;;;20.77;12.55;;;8.00;99.90;;;;;;5003505;28;20030;-87
2022/03/18 03:33:58;;;;;;;21.15;12.27;;;7.90;99.90;;;;;;5009945;28;20086;-86
2022/03/18 03:36:24;;;;;;;20.55;12.18;;;7.90;99.90;;;;;;5003328;28;20022;-85
2022/03/18 03:38:50;;;;;;;22.15;12.15;;;7.90;99.90;;;;;;5003918;28;20059;-86
2022/03/18 03:41:18;;;;;;;20.00;11.70;;;7.90;99.90;;;;;;5018130;28;20450;-86
2022/03/18 03:43:43;;;;;;;17.45;11.52;;;7.90;99.90;;;;;;5003176;28;20030;-86
2022/03/18 03:46:09;;;;;;;17.52;11.55;;;7.90;99.90;;;;;;5003040;28;20026;-87
2022/03/18 03:48:35;;;;;;;23.35;12.30;;;7.90;99.90;;;;;;5010136;28;20029;-87
2022/03/18 03:51:01;;;;;;;23.50;13.32;;;7.90;99.90;;;;;;5004482;28;20034;-87
2022/03/18 03:53:26;;;;;;;21.25;12.38;;;7.90;99.90;;;;;;5021932;28;20441;-86
2022/03/18 03:55:52;;;;;;;22.17;12.70;;;7.90;99.90;;;;;;5017040;28;20054;-87
2022/03/18 03:58:18;;;;;;;20.63;13.10;;;7.80;99.90;;;;;;5020522;28;20032;-86
2022/03/18 04:00:43;;;;;;;24.25;14.32;;;7.80;99.90;;;;;;5002638;28;20038;-86
2022/03/18 04:03:09;;;;;;;24.45;13.75;;;7.80;99.90;;;;;;5020771;28;20064;-86
2022/03/18 04:05:35;;;;;;;23.17;13.98;;;7.80;99.90;;;;;;5019399;28;20392;-86
2022/03/18 04:08:02;;;;;;;25.60;15.32;;;7.80;99.90;;;;;;5009833;28;20080;-86
2022/03/18 04:10:28;;;;;;;24.38;14.15;;;7.80;99.90;;;;;;5000418;28;20022;-85
2022/03/18 04:12:54;;;;;;;22.52;13.55;;;7.90;99.90;;;;;;4989179;28;20367;-86
2022/03/18 04:15:21;;;;;;;25.83;14.77;;;7.80;99.90;;;;;;5006710;28;20026;-86
2022/03/18 04:17:48;;;;;;;25.65;14.27;;;7.80;99.90;;;;;;5006590;28;20022;-86
2022/03/18 04:20:23;;;;;;;23.65;14.05;;;7.80;99.90;;;;;;5007726;28;20026;-87
2022/03/18 04:22:52;;;;;;;24.88;15.35;;;7.80;99.90;;;;;;5007587;28;20407;-87
2022/03/18 04:25:20;;;;;;;27.02;15.00;;;7.70;99.90;;;;;;5013119;28;20049;-86
2022/03/18 04:27:46;;;;;;;24.25;13.95;;;7.70;99.90;;;;;;5006030;28;20025;-86
2022/03/18 04:30:13;;;;;;;24.35;14.15;;;7.70;99.90;;;;;;5013578;28;20030;-86
2022/03/18 04:32:40;;;;;;;25.92;15.13;;;7.80;99.90;;;;;;5006620;28;20038;-86
2022/03/18 04:35:07;;;;;;;29.90;15.43;;;7.70;99.90;;;;;;5007497;28;20022;-86
2022/03/18 04:37:32;;;;;;;27.83;15.50;;;7.70;99.90;;;;;;5011692;28;20091;-86
2022/03/18 04:39:58;;;;;;;24.48;14.55;;;7.70;99.90;;;;;;5025701;28;20077;-86
2022/03/18 04:42:24;;;;;;;25.80;14.95;;;7.70;99.90;;;;;;5007081;28;20116;-86
2022/03/18 04:44:49;;;;;;;27.90;14.40;;;7.70;99.90;;;;;;5005172;28;20038;-86
2022/03/18 04:47:15;;;;;;;28.85;16.08;;;7.70;99.90;;;;;;5001503;28;20025;-86
2022/03/18 04:49:41;;;;;;;25.67;15.32;;;7.70;99.90;;;;;;5005324;28;20026;-87
2022/03/18 04:52:07;;;;;;;25.85;14.13;;;7.70;99.90;;;;;;5005122;28;20038;-86
2022/03/18 04:54:32;;;;;;;26.02;14.70;;;7.70;99.90;;;;;;5017871;28;20026;-86
2022/03/18 04:57:17;;;;;;;25.42;14.75;;;7.70;99.90;;;;;;5004258;28;20472;-86
2022/03/18 04:59:43;;;;;;;26.85;15.25;;;7.70;99.90;;;;;;5007394;28;20025;-87
2022/03/18 05:02:14;;;;;;;26.88;15.43;;;7.70;99.90;;;;;;5022548;28;20548;-87
2022/03/18 05:04:41;;;;;;;28.88;16.10;;;7.70;99.90;;;;;;5003823;28;20034;-87
2022/03/18 05:07:07;;;;;;;30.42;17.08;;;7.70;99.90;;;;;;5005358;28;20025;-87
2022/03/18 05:09:33;;;;;;;30.40;17.00;;;7.70;99.90;;;;;;5005744;28;20451;-88
2022/03/18 05:11:58;;;;;;;29.10;16.15;;;7.70;99.90;;;;;;5007063;28;20052;-86
2022/03/18 05:14:24;;;;;;;29.27;16.23;;;7.60;99.90;;;;;;5006223;28;20033;-86
2022/03/18 05:16:50;;;;;;;31.42;17.30;;;7.70;99.90;;;;;;4995673;28;20018;-86
2022/03/18 05:19:16;;;;;;;33.22;17.38;;;7.70;99.90;;;;;;5006029;28;20025;-87
2022/03/18 05:21:41;;;;;;;32.30;18.40;;;7.70;99.90;;;;;;5007605;28;20396;-88
2022/03/18 05:24:07;;;;;;;32.65;17.67;;;7.70;99.90;;;;;;5008597;28;20041;-87
2022/03/18 05:26:33;;;;;;;33.10;18.17;;;7.70;99.90;;;;;;5021946;28;20037;-86
2022/03/18 05:28:59;;;;;;;30.50;17.50;;;7.60;99.90;;;;;;5021071;28;20029;-86
2022/03/18 05:31:26;;;;;;;33.75;18.48;;;7.70;99.90;;;;;;5038089;28;20022;-86
2022/03/18 05:33:52;;;;;;;36.20;19.50;;;7.70;99.90;;;;;;5020136;28;20038;-86
2022/03/18 05:36:17;;;;;;;36.90;20.00;;;7.70;99.90;;;;;;5022722;28;20022;-87
2022/03/18 05:38:43;;;;;;;32.47;18.08;;;7.70;99.90;;;;;;5012212;28;20029;-88
2022/03/18 05:41:12;;;;;;;41.58;20.58;;;7.70;99.90;;;;;;5006914;28;20026;-88
2022/03/18 05:43:39;;;;;;;42.15;20.80;;;7.70;99.90;;;;;;5006547;28;20092;-88
2022/03/18 05:46:05;;;;;;;38.15;21.13;;;7.70;99.90;;;;;;5009391;28;20022;-87
2022/03/18 05:48:31;;;;;;;41.05;21.00;;;7.60;99.90;;;;;;5008911;28;20052;-88
2022/03/18 05:50:56;;;;;;;42.40;23.17;;;7.60;99.90;;;;;;4996409;28;20109;-87
2022/03/18 05:53:23;;;;;;;41.90;22.88;;;7.70;99.90;;;;;;5000116;28;20105;-88
2022/03/18 05:58:34;;;;;;;44.60;23.92;;;7.60;99.90;;;;;;5003512;28;20037;-87
2022/03/18 06:01:00;;;;;;;44.20;22.58;;;7.60;99.90;;;;;;4993628;28;20022;-87
2022/03/18 06:03:26;;;;;;;42.97;23.75;;;7.60;99.90;;;;;;4999246;28;20030;-88
2022/03/18 06:05:51;;;;;;;47.05;23.48;;;7.60;99.90;;;;;;5006740;28;20038;-88
2022/03/18 06:13:45;;;;;;;45.28;23.15;;;7.70;99.90;;;;;;5028738;28;20112;-86
2022/03/18 06:16:11;;;;;;;42.22;22.45;;;7.60;99.90;;;;;;5007740;28;20034;-87
2022/03/18 06:18:37;;;;;;;40.55;21.80;;;7.70;99.90;;;;;;5019413;28;20021;-88
2022/03/18 06:21:06;;;;;;;44.08;22.45;;;7.70;99.90;;;;;;5004482;28;20436;-88
2022/03/18 06:23:32;;;;;;;49.97;23.45;;;7.70;99.90;;;;;;5020161;28;20037;-88
2022/03/18 06:25:58;;;;;;;49.10;23.90;;;7.70;99.90;;;;;;5002868;28;20036;-87
2022/03/18 06:28:23;;;;;;;40.25;22.17;;;7.70;99.90;;;;;;5019567;28;20021;-87
2022/03/18 06:30:50;;;;;;;39.88;21.60;;;7.80;99.90;;;;;;5003993;28;20099;-87
2022/03/18 06:33:47;;;;;;;42.53;21.17;;;7.70;99.90;;;;;;5003005;28;20453;-88
2022/03/18 06:36:14;;;;;;;41.67;21.55;;;7.70;99.90;;;;;;5001970;28;20029;-88
2022/03/18 06:38:40;;;;;;;41.92;20.95;;;7.80;99.90;;;;;;5003241;28;20025;-87
2022/03/18 06:41:06;;;;;;;40.85;21.05;;;7.80;99.90;;;;;;5004081;28;20037;-87
2022/03/18 06:43:31;;;;;;;37.50;19.77;;;7.80;99.90;;;;;;5002324;28;20034;-88
2022/03/18 06:45:57;;;;;;;37.83;19.60;;;7.80;99.90;;;;;;5003088;28;20026;-88
2022/03/18 06:48:23;;;;;;;38.50;19.10;;;7.80;99.90;;;;;;5003678;28;20026;-86
2022/03/18 06:50:49;;;;;;;35.75;18.65;;;7.80;99.90;;;;;;5002940;28;20125;-87
2022/03/18 06:53:15;;;;;;;37.17;19.83;;;7.80;99.90;;;;;;5002532;28;20029;-88
2022/03/18 06:55:40;;;;;;;41.22;21.20;;;7.80;99.90;;;;;;4999795;28;20022;-86
2022/03/18 06:58:06;;;;;;;35.20;18.13;;;7.80;99.90;;;;;;4999596;28;20489;-88
2022/03/18 07:00:32;;;;;;;35.25;18.08;;;7.80;99.90;;;;;;5002604;28;20449;-87
2022/03/18 07:02:58;;;;;;;36.60;18.30;;;7.80;99.90;;;;;;5002011;28;20030;-88
2022/03/18 07:05:24;;;;;;;33.10;17.00;;;7.90;99.90;;;;;;5001463;28;20064;-87
2022/03/18 07:07:50;;;;;;;32.28;17.05;;;7.90;99.90;;;;;;5000867;28;20026;-87
2022/03/18 07:10:15;;;;;;;32.65;16.75;;;7.90;99.90;;;;;;5017586;28;20025;-85
2022/03/18 07:12:42;;;;;;;34.65;17.48;;;7.90;99.90;;;;;;5017122;28;20532;-86
2022/03/18 07:15:08;;;;;;;31.15;15.93;;;7.90;99.90;;;;;;5006426;28;20030;-88
2022/03/18 07:20:18;;;;;;;33.35;17.02;;;7.90;99.90;;;;;;5026919;28;20096;-87
2022/03/18 07:22:44;;;;;;;34.78;16.48;;;7.90;99.90;;;;;;5005266;28;20031;-87
2022/03/18 07:25:11;;;;;;;28.38;16.45;;;7.90;99.90;;;;;;5000946;28;20052;-86
2022/03/18 07:27:36;;;;;;;32.75;15.88;;;7.90;99.90;;;;;;4996622;28;20056;-87
2022/03/18 07:30:05;;;;;;;32.20;16.63;;;8.00;99.90;;;;;;5014920;28;20026;-89
2022/03/18 07:32:31;;;;;;;33.88;16.20;;;7.90;99.90;;;;;;4996793;28;20099;-86
2022/03/18 07:34:57;;;;;;;30.92;16.10;;;7.90;99.90;;;;;;4999049;28;20491;-88
2022/03/18 07:37:22;;;;;;;29.95;15.45;;;7.90;99.90;;;;;;5015999;28;20018;-87
2022/03/18 07:39:48;;;;;;;29.95;15.75;;;7.90;99.90;;;;;;4996982;28;20080;-88
2022/03/18 07:42:14;;;;;;;31.58;16.23;;;7.90;99.90;;;;;;5016580;28;20109;-87
2022/03/18 07:44:39;;;;;;;30.15;14.88;;;7.90;99.90;;;;;;5008465;28;20033;-87
2022/03/18 07:47:05;;;;;;;30.83;16.27;;;8.00;99.90;;;;;;4997374;28;20029;-86
2022/03/18 07:49:31;;;;;;;31.13;15.93;;;8.00;99.90;;;;;;5022890;28;20566;-87
2022/03/18 07:51:57;;;;;;;33.03;16.15;;;7.90;99.90;;;;;;5003713;28;20034;-88
2022/03/18 07:54:25;;;;;;;35.45;16.92;;;8.00;99.90;;;;;;5002509;28;20377;-87
2022/03/18 07:56:51;;;;;;;37.25;17.40;;;8.00;99.90;;;;;;4999239;28;20026;-88
2022/03/18 07:59:17;;;;;;;34.67;17.85;;;8.10;99.90;;;;;;4999605;28;20468;-88
2022/03/18 08:01:42;;;;;;;37.90;16.88;;;8.10;99.90;;;;;;4998914;28;20037;-87
2022/03/18 08:06:43;;;;;;;34.25;17.77;;;8.10;99.90;;;;;;4951460;28;20472;-89
2022/03/18 08:09:09;;;;;;;33.28;17.40;;;8.10;99.90;;;;;;4956994;28;20039;-88
2022/03/18 08:11:35;;;;;;;37.47;17.13;;;8.20;99.90;;;;;;4943778;29;20507;-88
2022/03/18 08:14:01;;;;;;;38.08;18.13;;;8.20;99.90;;;;;;4921541;29;20118;-88
2022/03/18 08:16:26;;;;;;;37.40;18.60;;;8.20;99.90;;;;;;4920747;29;20019;-88
2022/03/18 08:18:54;;;;;;;30.25;16.40;;;8.20;99.90;;;;;;4937340;29;20024;-89
2022/03/18 08:21:20;;;;;;;33.72;17.38;;;8.20;99.90;;;;;;4937022;29;20206;-88
2022/03/18 08:23:46;;;;;;;35.42;17.55;;;8.20;99.90;;;;;;4936367;29;20119;-88
2022/03/18 08:26:11;;;;;;;35.65;17.73;;;8.30;99.90;;;;;;4920787;29;20047;-88
2022/03/18 08:28:37;;;;;;;34.42;17.80;;;8.40;99.90;;;;;;4941171;28;20591;-89
2022/03/18 08:31:02;;;;;;;34.92;17.40;;;8.40;99.90;;;;;;4921231;29;20028;-88
2022/03/18 08:33:28;;;;;;;34.38;16.95;;;8.40;99.90;;;;;;4920791;29;20028;-89
2022/03/18 08:35:53;;;;;;;35.28;18.10;;;8.40;99.90;;;;;;4935997;29;20020;-89
2022/03/18 08:38:19;;;;;;;31.67;16.55;;;8.50;99.90;;;;;;4929831;29;20051;-89
2022/03/18 08:40:45;;;;;;;30.23;16.77;;;8.50;99.90;;;;;;4920721;29;20500;-89
2022/03/18 08:43:10;;;;;;;33.65;17.95;;;8.60;99.90;;;;;;4920624;29;20027;-88
2022/03/18 08:45:36;;;;;;;40.75;20.67;;;8.60;99.90;;;;;;4935902;29;20099;-88
2022/03/18 08:48:03;;;;;;;32.88;18.85;;;8.80;99.90;;;;;;4921028;29;20118;-89
2022/03/18 08:50:29;;;;;;;35.72;17.92;;;8.80;99.90;;;;;;4920769;29;20477;-89
2022/03/18 08:52:56;;;;;;;37.70;18.15;;;8.80;99.90;;;;;;4935275;29;20020;-89
2022/03/18 08:55:22;;;;;;;34.90;18.23;;;8.80;99.90;;;;;;4921519;29;20074;-88
2022/03/18 08:57:49;;;;;;;34.97;17.92;;;8.80;99.90;;;;;;4920605;29;20082;-89
2022/03/18 09:00:16;;;;;;;35.15;19.05;;;8.80;99.90;;;;;;4920496;29;20027;-89
2022/03/18 09:02:43;;;;;;;34.80;17.30;;;8.90;99.90;;;;;;4920791;29;20024;-89
2022/03/18 09:05:10;;;;;;;39.05;18.42;;;9.00;99.90;;;;;;4937895;29;20102;-88
2022/03/18 09:07:36;;;;;;;30.85;17.75;;;9.00;99.90;;;;;;4936436;29;20476;-88
2022/03/18 09:10:04;;;;;;;35.67;18.15;;;9.10;99.90;;;;;;4936760;29;20535;-88
2022/03/18 09:12:29;;;;;;;33.60;18.90;;;9.10;99.90;;;;;;4918788;29;20028;-88
2022/03/18 09:14:58;;;;;;;33.10;17.10;;;9.20;99.90;;;;;;4919477;29;20111;-88
2022/03/18 09:17:24;;;;;;;34.40;17.50;;;9.20;99.90;;;;;;4920621;29;20035;-88
2022/03/18 09:19:49;;;;;;;36.75;17.52;;;9.30;99.90;;;;;;4924214;29;20050;-88
2022/03/18 09:22:16;;;;;;;30.88;16.92;;;9.30;99.90;;;;;;4921026;29;20480;-88
2022/03/18 09:24:42;;;;;;;35.72;16.15;;;9.50;99.90;;;;;;4937047;29;20400;-88
2022/03/18 09:27:09;;;;;;;32.10;17.13;;;9.50;99.90;;;;;;4921096;29;20087;-88
2022/03/18 09:29:35;;;;;;;30.08;16.35;;;9.50;99.90;;;;;;4938524;29;20024;-89
2022/03/18 09:32:01;;;;;;;29.92;16.10;;;9.60;99.90;;;;;;4920603;29;20038;-88
2022/03/18 09:34:27;;;;;;;30.42;16.52;;;9.60;99.90;;;;;;4944553;29;20142;-88
2022/03/18 09:36:54;;;;;;;31.95;17.33;;;9.50;99.90;;;;;;4955853;29;20015;-88
2022/03/18 09:39:21;;;;;;;29.75;17.13;;;9.50;99.90;;;;;;4952863;29;20039;-88
2022/03/18 09:41:46;;;;;;;30.05;16.55;;;9.50;99.90;;;;;;4941932;29;20039;-88
2022/03/18 09:44:12;;;;;;;33.38;16.70;;;9.60;99.90;;;;;;4926409;29;20036;-88
2022/03/18 09:46:40;;;;;;;34.38;17.65;;;9.60;99.90;;;;;;4937254;29;20083;-89
2022/03/18 09:49:11;;;;;;;29.25;17.27;;;9.60;99.90;;;;;;4937636;29;20504;-89
2022/03/18 09:51:40;;;;;;;31.65;17.08;;;9.70;99.90;;;;;;4923532;29;20116;-89
2022/03/18 09:54:06;;;;;;;35.42;18.23;;;9.70;99.90;;;;;;4921564;29;20020;-88
2022/03/18 09:56:34;;;;;;;31.85;17.80;;;9.80;99.90;;;;;;4936854;29;20030;-88
2022/03/18 09:59:00;;;;;;;32.75;17.80;;;9.90;99.90;;;;;;4920590;29;20150;-88
2022/03/18 10:01:26;;;;;;;33.00;18.40;;;10.10;99.90;;;;;;4937463;29;20492;-88
2022/03/18 10:03:51;;;;;;;34.90;18.92;;;10.20;99.90;;;;;;4918771;29;20489;-88
2022/03/18 10:06:26;;;;;;;33.72;18.83;;;10.30;99.90;;;;;;4920034;29;20038;-88
2022/03/18 10:08:53;;;;;;;35.50;18.38;;;10.50;99.90;;;;;;4936282;29;20034;-88
2022/03/18 10:11:32;;;;;;;35.95;19.85;;;10.60;99.90;;;;;;4936034;29;20027;-88
2022/03/18 10:14:06;;;;;;;34.22;18.60;;;10.80;99.90;;;;;;4919159;29;20059;-87
2022/03/18 10:16:34;;;;;;;29.30;18.20;;;10.80;99.90;;;;;;4919725;29;20051;-88
2022/03/18 10:19:01;;;;;;;31.80;17.30;;;10.90;99.90;;;;;;4918541;29;20030;-89
2022/03/18 10:21:28;;;;;;;31.20;18.23;;;11.10;99.90;;;;;;4934881;29;20032;-88
2022/03/18 10:24:12;;;;;;;34.70;18.48;;;11.10;99.90;;;;;;4916142;29;20024;-89
2022/03/18 10:26:38;;;;;;;34.20;19.40;;;11.10;99.90;;;;;;4934619;29;20104;-88
2022/03/18 10:29:05;;;;;;;33.05;18.02;;;11.10;99.90;;;;;;4918434;29;20023;-88
2022/03/18 10:31:31;;;;;;;31.80;19.50;;;11.20;99.90;;;;;;4918121;29;20082;-89
2022/03/18 10:37:05;;;;;;;35.03;18.13;;;11.30;99.90;;;;;;4935203;29;20101;-88
2022/03/18 10:39:43;;;;;;;33.05;18.80;;;11.30;99.90;;;;;;4918386;29;20016;-88
2022/03/18 10:42:11;;;;;;;33.83;20.30;;;11.40;99.90;;;;;;4934784;29;20031;-88
2022/03/18 10:44:51;;;;;;;33.35;19.95;;;11.40;99.90;;;;;;4912960;29;20027;-88
2022/03/18 10:47:45;;;;;;;33.00;18.30;;;11.40;99.90;;;;;;4918182;29;20030;-89
2022/03/18 10:50:21;;;;;;;37.15;19.75;;;11.40;99.90;;;;;;4918087;29;20055;-88
2022/03/18 10:52:47;;;;;;;34.40;19.02;;;11.50;99.90;;;;;;4917567;29;20055;-89
2022/03/18 10:55:20;;;;;;;36.97;20.23;;;11.50;99.70;;;;;;4918384;29;20024;-88
2022/03/18 10:57:50;;;;;;;36.85;20.80;;;11.50;99.60;;;;;;4935177;29;20030;-88
2022/03/18 11:00:17;;;;;;;32.97;19.17;;;11.50;99.40;;;;;;4918164;29;20049;-88
2022/03/18 11:02:48;;;;;;;34.97;20.35;;;11.60;99.60;;;;;;4917240;29;20034;-88
2022/03/18 11:05:15;;;;;;;33.22;19.15;;;11.80;99.30;;;;;;4917850;29;20154;-88
2022/03/18 11:07:42;;;;;;;38.05;20.63;;;11.90;99.10;;;;;;4917573;29;20023;-89
2022/03/18 11:12:56;;;;;;;36.45;19.20;;;12.10;98.90;;;;;;4935154;29;20061;-88
2022/03/18 11:15:25;;;;;;;34.70;17.90;;;12.20;98.80;;;;;;4918340;29;20442;-89
2022/03/18 11:17:56;;;;;;;32.78;19.30;;;12.30;98.60;;;;;;4919313;29;20451;-88
2022/03/18 11:20:27;;;;;;;29.60;18.55;;;12.50;98.50;;;;;;4920337;29;20091;-88
2022/03/18 11:22:54;;;;;;;32.35;19.20;;;12.70;98.30;;;;;;4937357;28;20091;-88
2022/03/18 11:25:21;;;;;;;32.38;17.98;;;12.70;98.00;;;;;;4940707;28;20099;-88
2022/03/18 11:27:48;;;;;;;31.17;18.00;;;12.70;97.90;;;;;;4961350;28;20028;-88
2022/03/18 11:30:17;;;;;;;31.73;19.00;;;12.70;97.70;;;;;;4942045;29;20091;-89
2022/03/18 11:33:04;;;;;;;30.33;17.80;;;12.70;97.50;;;;;;4941289;28;20044;-89
2022/03/18 11:35:50;;;;;;;29.48;17.80;;;12.70;97.30;;;;;;4937736;29;20027;-88
2022/03/18 11:38:15;;;;;;;28.02;17.45;;;12.60;97.50;;;;;;4919120;29;20392;-88
2022/03/18 11:40:59;;;;;;;28.67;17.05;;;12.60;97.30;;;;;;4919598;29;20019;-89
2022/03/18 11:43:51;;;;;;;27.73;17.48;;;12.50;97.40;;;;;;4923918;29;20034;-89
2022/03/18 11:46:17;;;;;;;31.17;17.77;;;12.60;97.60;;;;;;4937929;29;20027;-89
2022/03/18 11:48:44;;;;;;;29.13;17.50;;;12.80;97.40;;;;;;4938606;29;20353;-88
2022/03/18 11:51:33;;;;;;;29.80;17.35;;;12.80;97.10;;;;;;4946986;28;20030;-88
2022/03/18 11:54:03;;;;;;;30.48;16.65;;;12.80;97.00;;;;;;4945133;29;20020;-87
2022/03/18 11:56:44;;;;;;;27.55;17.52;;;12.90;96.90;;;;;;4943059;28;20026;-88
2022/03/18 11:59:25;;;;;;;28.10;17.50;;;13.00;96.80;;;;;;4943025;28;20035;-88
2022/03/18 12:01:52;;;;;;;29.98;17.58;;;13.00;96.70;;;;;;4942837;28;20020;-87
2022/03/18 12:04:33;;;;;;;25.15;15.98;;;13.10;96.60;;;;;;4941411;28;20012;-87
2022/03/18 12:07:21;;;;;;;27.60;17.85;;;13.10;96.40;;;;;;4938640;28;20028;-88
2022/03/18 12:10:05;;;;;;;26.05;16.73;;;12.90;96.00;;;;;;4945578;28;20099;-87
2022/03/18 12:12:42;;;;;;;27.55;17.25;;;12.90;96.40;;;;;;4925408;28;20024;-87
2022/03/18 12:15:19;;;;;;;28.33;16.10;;;12.90;96.30;;;;;;4934392;29;20039;-89
2022/03/18 12:17:45;;;;;;;27.42;16.65;;;13.00;96.30;;;;;;4929216;29;20024;-88
2022/03/18 12:20:24;;;;;;;29.60;16.33;;;13.00;96.40;;;;;;4918189;29;20024;-90
2022/03/18 12:22:52;;;;;;;28.10;16.15;;;13.10;96.20;;;;;;4917211;29;20040;-90
2022/03/18 12:25:20;;;;;;;25.35;16.38;;;13.10;95.90;;;;;;4935694;29;20032;-89
2022/03/18 12:27:46;;;;;;;26.95;16.27;;;13.10;95.90;;;;;;4934601;29;20366;-89
2022/03/18 12:30:14;;;;;;;23.20;15.80;;;13.00;95.70;;;;;;4918765;29;20023;-89
2022/03/18 12:32:48;;;;;;;27.67;16.23;;;13.10;95.80;;;;;;4918434;29;20032;-88
2022/03/18 12:35:16;;;;;;;25.73;15.70;;;13.20;95.70;;;;;;4919816;29;20488;-89
2022/03/18 12:37:45;;;;;;;25.55;16.40;;;13.20;95.50;;;;;;4922939;29;20054;-89
2022/03/18 12:40:16;;;;;;;23.98;15.55;;;13.20;95.60;;;;;;4921107;29;20110;-89
2022/03/18 12:42:53;;;;;;;26.65;15.40;;;13.40;95.50;;;;;;4917435;29;20103;-89
2022/03/18 12:45:41;;;;;;;28.85;17.50;;;13.40;95.20;;;;;;4937767;29;20031;-88
2022/03/18 12:48:09;;;;;;;26.65;16.35;;;13.40;95.20;;;;;;4935558;29;20035;-89
2022/03/18 12:50:44;;;;;;;26.73;16.70;;;13.50;95.00;;;;;;4920971;29;20055;-89
2022/03/18 12:53:10;;;;;;;24.55;15.75;;;13.60;95.00;;;;;;4915910;29;20032;-89
2022/03/18 12:55:36;;;;;;;22.85;15.55;;;13.60;94.70;;;;;;4920960;29;20024;-89
2022/03/18 12:58:04;;;;;;;25.00;16.05;;;13.60;94.50;;;;;;4922088;29;20500;-88
2022/03/18 13:00:39;;;;;;;25.27;15.50;;;13.60;94.60;;;;;;4921690;29;20059;-89
2022/03/18 13:03:06;;;;;;;25.83;15.65;;;13.50;94.00;;;;;;4924634;29;20491;-90